createdAt,value
2019-05-06T00:00:14.427Z,3.05
2019-05-06T00:01:14.977Z,3.09
2019-05-06T00:02:14.400Z,3.15
2019-05-06T00:03:14.398Z,3.06
2019-05-06T00:04:14.383Z,3.16
2019-05-06T00:05:14.450Z,3.12
2019-05-06T00:06:14.560Z,3.13
2019-05-06T00:07:14.349Z,3.16
2019-05-06T00:08:14.529Z,3.24
2019-05-06T00:09:14.794Z,3.16
2019-05-06T00:10:14.333Z,3.21
2019-05-06T00:11:14.325Z,3.24
2019-05-06T00:12:14.515Z,3.18
2019-05-06T00:13:14.311Z,3.23
2019-05-06T00:14:14.285Z,3.27
2019-05-06T00:15:14.475Z,3.27
2019-05-06T00:16:14.497Z,3.31
2019-05-06T00:17:14.593Z,3.34
2019-05-06T00:18:14.221Z,3.42
2019-05-06T00:19:14.240Z,3.42
2019-05-06T00:20:14.724Z,3.47
2019-05-06T00:21:14.787Z,3.47
2019-05-06T00:22:14.317Z,3.53
2019-05-06T00:23:14.339Z,3.61
2019-05-06T00:24:14.666Z,3.71
2019-05-06T00:25:16.790Z,3.65
2019-05-06T00:26:14.148Z,3.70
2019-05-06T00:27:14.245Z,3.79
2019-05-06T00:28:14.107Z,3.80
2019-05-06T00:29:14.095Z,3.71
2019-05-06T00:30:14.902Z,3.75
2019-05-06T00:31:16.575Z,3.78
2019-05-06T00:32:15.063Z,3.65
2019-05-06T00:33:14.057Z,3.75
2019-05-06T00:34:14.040Z,3.75
2019-05-06T00:35:14.255Z,3.82
2019-05-06T00:36:14.221Z,3.75
2019-05-06T00:37:14.633Z,3.72
2019-05-06T00:38:13.996Z,3.75
2019-05-06T00:39:14.968Z,3.71
2019-05-06T00:40:14.108Z,3.79
2019-05-06T00:41:14.424Z,3.76
2019-05-06T00:42:14.004Z,3.68
2019-05-06T00:43:14.115Z,3.68
2019-05-06T00:44:14.395Z,3.79
2019-05-06T00:45:13.933Z,3.65
2019-05-06T00:46:13.966Z,3.71
2019-05-06T00:47:13.924Z,3.57
2019-05-06T00:48:14.054Z,3.62
2019-05-06T00:49:14.318Z,3.65
2019-05-06T00:50:14.304Z,3.58
2019-05-06T00:51:13.845Z,3.44
2019-05-06T00:52:13.834Z,3.49
2019-05-06T00:53:14.180Z,3.47
2019-05-06T00:54:14.297Z,3.40
2019-05-06T00:55:13.844Z,3.33
2019-05-06T00:56:14.065Z,3.25
2019-05-06T00:57:14.026Z,3.16
2019-05-06T00:58:14.231Z,3.16
2019-05-06T00:59:14.335Z,3.09
2019-05-06T01:00:13.742Z,3.13
2019-05-06T01:01:25.937Z,3.09
2019-05-06T01:02:14.718Z,3.13
2019-05-06T01:03:14.094Z,3.05
2019-05-06T01:04:14.008Z,3.15
2019-05-06T01:05:14.009Z,2.98
2019-05-06T01:06:14.204Z,3.06
2019-05-06T01:07:14.046Z,2.74
2019-05-06T01:08:14.123Z,2.94
2019-05-06T01:09:14.126Z,3.00
2019-05-06T01:10:14.275Z,2.88
2019-05-06T01:11:14.440Z,2.95
2019-05-06T01:12:14.338Z,3.02
2019-05-06T01:13:14.545Z,2.87
2019-05-06T01:14:14.830Z,2.87
2019-05-06T01:15:14.279Z,2.77
2019-05-06T01:16:15.621Z,2.88
2019-05-06T01:17:13.548Z,2.77
2019-05-06T01:18:13.841Z,2.64
2019-05-06T01:19:14.165Z,2.70
2019-05-06T01:20:13.970Z,2.63
2019-05-06T01:21:14.551Z,2.63
2019-05-06T01:22:14.018Z,2.71
2019-05-06T01:23:14.374Z,2.66
2019-05-06T01:24:14.674Z,2.64
2019-05-06T01:25:14.212Z,2.66
2019-05-06T01:26:15.023Z,2.61
2019-05-06T01:27:14.556Z,2.70
2019-05-06T01:28:13.876Z,2.55
2019-05-06T01:29:14.564Z,2.61
2019-05-06T01:30:13.811Z,2.46
2019-05-06T01:31:13.985Z,2.51
2019-05-06T01:32:13.933Z,2.41
2019-05-06T01:33:14.615Z,2.45
2019-05-06T01:34:13.811Z,2.53
2019-05-06T01:35:14.023Z,2.46
2019-05-06T01:36:14.181Z,2.37
2019-05-06T01:37:14.238Z,2.40
2019-05-06T01:38:14.655Z,2.44
2019-05-06T01:39:13.892Z,2.46
2019-05-06T01:40:14.318Z,2.33
2019-05-06T01:41:13.671Z,2.45
2019-05-06T01:42:13.855Z,2.48
2019-05-06T01:43:14.556Z,2.44
2019-05-06T01:44:13.716Z,2.30
2019-05-06T01:45:14.182Z,2.40
2019-05-06T01:46:14.024Z,2.44
2019-05-06T01:47:14.534Z,2.49
2019-05-06T01:48:14.345Z,2.40
2019-05-06T01:49:13.755Z,2.30
2019-05-06T01:50:14.044Z,2.34
2019-05-06T01:51:14.278Z,2.37
2019-05-06T01:52:14.684Z,2.35
2019-05-06T01:53:14.033Z,2.46
2019-05-06T01:54:14.114Z,2.45
2019-05-06T01:55:14.171Z,2.49
2019-05-06T01:56:14.499Z,2.38
2019-05-06T01:57:13.753Z,2.51
2019-05-06T01:58:14.567Z,2.52
2019-05-06T01:59:13.958Z,2.53
2019-05-06T02:00:14.056Z,2.55
2019-05-06T02:01:14.825Z,2.64
2019-05-06T02:02:14.283Z,2.55
2019-05-06T02:03:14.738Z,2.56
2019-05-06T02:04:13.800Z,2.61
2019-05-06T02:05:13.813Z,2.67
2019-05-06T02:06:14.175Z,2.64
2019-05-06T02:07:14.486Z,2.71
2019-05-06T02:08:13.510Z,2.69
2019-05-06T02:09:13.720Z,2.79
2019-05-06T02:10:14.196Z,2.85
2019-05-06T02:11:14.915Z,2.77
2019-05-06T02:12:13.768Z,2.87
2019-05-06T02:13:14.215Z,2.74
2019-05-06T02:14:14.008Z,2.79
2019-05-06T02:15:14.599Z,2.81
2019-05-06T02:16:14.533Z,2.73
2019-05-06T02:17:14.392Z,2.82
2019-05-06T02:18:13.520Z,2.79
2019-05-06T02:19:14.795Z,2.74
2019-05-06T02:20:13.806Z,2.79
2019-05-06T02:21:13.890Z,2.91
2019-05-06T02:22:13.610Z,2.89
2019-05-06T02:23:14.573Z,2.92
2019-05-06T02:24:13.489Z,2.88
2019-05-06T02:25:13.830Z,2.85
2019-05-06T02:26:14.136Z,2.91
2019-05-06T02:27:13.968Z,2.81
2019-05-06T02:28:14.307Z,2.85
2019-05-06T02:29:12.724Z,2.92
2019-05-06T02:30:15.293Z,2.88
2019-05-06T02:31:14.856Z,2.92
2019-05-06T02:32:25.486Z,2.81
2019-05-06T02:33:15.380Z,2.98
2019-05-06T02:34:15.290Z,2.79
2019-05-06T02:35:14.948Z,2.97
2019-05-06T02:36:14.928Z,3.05
2019-05-06T02:37:14.676Z,2.94
2019-05-06T02:38:12.649Z,2.81
2019-05-06T02:39:14.103Z,2.91
2019-05-06T02:40:12.710Z,2.87
2019-05-06T02:41:13.494Z,2.88
2019-05-06T02:42:13.197Z,2.73
2019-05-06T02:43:13.577Z,2.79
2019-05-06T02:44:13.686Z,2.81
2019-05-06T02:45:12.784Z,2.64
2019-05-06T02:46:13.019Z,2.77
2019-05-06T02:47:13.729Z,2.66
2019-05-06T02:48:13.803Z,2.77
2019-05-06T02:49:13.220Z,2.71
2019-05-06T02:50:13.249Z,2.56
2019-05-06T02:51:13.315Z,2.61
2019-05-06T02:52:14.061Z,2.51
2019-05-06T02:53:13.357Z,2.52
2019-05-06T02:54:13.553Z,2.44
2019-05-06T02:55:13.035Z,2.56
2019-05-06T02:56:13.360Z,2.53
2019-05-06T02:57:13.155Z,2.41
2019-05-06T02:58:14.828Z,2.45
2019-05-06T02:59:12.885Z,2.41
2019-05-06T03:00:13.159Z,2.44
2019-05-06T03:01:13.557Z,2.40
2019-05-06T03:02:14.022Z,2.44
2019-05-06T03:03:13.998Z,2.30
2019-05-06T03:04:13.136Z,2.31
2019-05-06T03:05:13.090Z,2.23
2019-05-06T03:06:13.105Z,2.33
2019-05-06T03:07:14.529Z,2.27
2019-05-06T03:08:13.396Z,2.26
2019-05-06T03:09:13.553Z,2.20
2019-05-06T03:10:12.880Z,2.33
2019-05-06T03:11:13.508Z,2.19
2019-05-06T03:12:13.649Z,2.23
2019-05-06T03:13:14.291Z,2.13
2019-05-06T03:14:13.854Z,2.12
2019-05-06T03:15:16.157Z,2.15
2019-05-06T03:16:14.219Z,2.09
2019-05-06T03:17:14.121Z,1.98
2019-05-06T03:18:14.759Z,1.94
2019-05-06T03:19:13.323Z,2.02
2019-05-06T03:20:13.223Z,1.94
2019-05-06T03:21:13.848Z,1.91
2019-05-06T03:22:13.394Z,1.89
2019-05-06T03:23:14.234Z,1.99
2019-05-06T03:24:14.532Z,2.01
2019-05-06T03:25:13.301Z,1.97
2019-05-06T03:26:13.697Z,1.91
2019-05-06T03:27:14.287Z,1.82
2019-05-06T03:28:13.241Z,1.89
2019-05-06T03:29:13.678Z,1.82
2019-05-06T03:30:16.435Z,1.79
2019-05-06T03:31:16.533Z,1.75
2019-05-06T03:32:16.666Z,1.65
2019-05-06T03:33:37.799Z,1.71
2019-05-06T03:34:27.854Z,1.71
2019-05-06T03:35:31.337Z,1.58
2019-05-06T03:36:23.627Z,1.68
2019-05-06T03:37:16.761Z,1.72
2019-05-06T03:38:13.779Z,1.64
2019-05-06T03:39:13.868Z,1.58
2019-05-06T03:40:13.864Z,1.78
2019-05-06T03:41:13.867Z,1.61
2019-05-06T03:42:15.992Z,1.54
2019-05-06T03:43:13.660Z,1.65
2019-05-06T03:44:16.358Z,1.64
2019-05-06T03:45:13.183Z,1.57
2019-05-06T03:46:14.326Z,1.52
2019-05-06T03:47:13.962Z,1.58
2019-05-06T03:48:12.940Z,1.58
2019-05-06T03:49:13.464Z,1.61
2019-05-06T03:50:13.323Z,1.52
2019-05-06T03:51:13.524Z,1.52
2019-05-06T03:52:13.637Z,1.55
2019-05-06T03:53:14.034Z,1.69
2019-05-06T03:54:12.833Z,1.62
2019-05-06T03:55:13.878Z,1.62
2019-05-06T03:56:16.920Z,1.69
2019-05-06T03:57:13.782Z,1.72
2019-05-06T03:58:13.495Z,1.82
2019-05-06T03:59:13.321Z,1.91
2019-05-06T04:00:13.288Z,1.98
2019-05-06T04:01:13.218Z,2.09
2019-05-06T04:02:13.258Z,2.22
2019-05-06T04:03:13.983Z,2.23
2019-05-06T04:04:12.591Z,2.35
2019-05-06T04:05:13.234Z,2.48
2019-05-06T04:06:13.785Z,2.46
2019-05-06T04:07:13.925Z,2.46
2019-05-06T04:08:12.701Z,2.46
2019-05-06T04:09:13.272Z,2.58
2019-05-06T04:10:13.623Z,2.51
2019-05-06T04:11:13.617Z,2.69
2019-05-06T04:12:12.810Z,2.71
2019-05-06T04:13:13.441Z,2.71
2019-05-06T04:14:14.007Z,2.70
2019-05-06T04:15:14.108Z,2.71
2019-05-06T04:16:13.801Z,2.73
2019-05-06T04:17:13.053Z,2.71
2019-05-06T04:18:12.528Z,2.77
2019-05-06T04:19:13.103Z,2.79
2019-05-06T04:20:12.766Z,2.76
2019-05-06T04:21:13.445Z,2.84
2019-05-06T04:22:12.928Z,2.79
2019-05-06T04:23:13.378Z,2.89
2019-05-06T04:24:13.356Z,2.84
2019-05-06T04:25:13.660Z,2.98
2019-05-06T04:26:13.396Z,2.98
2019-05-06T04:27:13.516Z,3.09
2019-05-06T04:28:12.906Z,3.02
2019-05-06T04:29:13.091Z,3.10
2019-05-06T04:31:07.383Z,3.09
2019-05-06T04:32:07.370Z,3.16
2019-05-06T04:33:07.357Z,3.09
2019-05-06T04:34:14.062Z,3.21
2019-05-06T04:35:08.360Z,3.31
2019-05-06T04:36:07.324Z,3.27
2019-05-06T04:37:07.311Z,3.43
2019-05-06T04:38:07.299Z,3.40
2019-05-06T04:39:07.287Z,3.43
2019-05-06T04:40:07.278Z,3.47
2019-05-06T04:41:07.284Z,3.44
2019-05-06T04:42:09.753Z,3.49
2019-05-06T04:43:07.240Z,3.54
2019-05-06T04:44:07.229Z,3.61
2019-05-06T04:45:07.218Z,3.65
2019-05-06T04:46:07.244Z,3.60
2019-05-06T04:47:07.196Z,3.76
2019-05-06T04:48:07.188Z,3.80
2019-05-06T04:49:10.713Z,3.86
2019-05-06T04:50:08.159Z,3.83
2019-05-06T04:51:07.171Z,3.94
2019-05-06T04:52:07.142Z,4.10
2019-05-06T04:53:07.131Z,4.25
2019-05-06T04:54:07.114Z,4.33
2019-05-06T04:55:07.106Z,4.39
2019-05-06T04:56:07.112Z,4.29
2019-05-06T04:57:07.079Z,4.36
2019-05-06T04:58:07.079Z,4.33
2019-05-06T04:59:07.060Z,4.32
2019-05-06T05:00:07.046Z,4.22
2019-05-06T05:01:07.053Z,4.29
2019-05-06T05:02:07.023Z,4.36
2019-05-06T05:03:07.030Z,4.43
2019-05-06T05:04:22.773Z,4.50
2019-05-06T05:05:07.986Z,4.51
2019-05-06T05:06:06.998Z,4.54
2019-05-06T05:07:06.966Z,4.72
2019-05-06T05:08:06.953Z,4.73
2019-05-06T05:09:06.941Z,4.86
2019-05-06T05:10:06.930Z,4.77
2019-05-06T05:11:06.956Z,4.79
2019-05-06T05:12:06.906Z,4.79
2019-05-06T05:13:06.895Z,4.84
2019-05-06T05:14:06.881Z,4.79
2019-05-06T05:15:06.874Z,4.89
2019-05-06T05:16:06.859Z,4.80
2019-05-06T05:17:06.865Z,4.80
2019-05-06T05:18:06.835Z,4.76
2019-05-06T05:19:06.823Z,4.80
2019-05-06T05:20:06.812Z,4.80
2019-05-06T05:21:06.806Z,4.94
2019-05-06T05:22:06.813Z,4.79
2019-05-06T05:23:06.781Z,4.88
2019-05-06T05:24:06.765Z,4.86
2019-05-06T05:25:06.752Z,4.77
2019-05-06T05:26:06.765Z,4.91
2019-05-06T05:27:06.753Z,4.72
2019-05-06T05:28:06.721Z,4.69
2019-05-06T05:29:06.705Z,4.88
2019-05-06T05:30:06.697Z,4.77
2019-05-06T05:31:06.684Z,4.84
2019-05-06T05:32:06.693Z,4.77
2019-05-06T05:33:06.661Z,4.88
2019-05-06T05:34:06.648Z,4.77
2019-05-06T05:35:06.641Z,4.84
2019-05-06T05:36:06.626Z,4.89
2019-05-06T05:37:06.614Z,4.88
2019-05-06T05:38:06.622Z,4.96
2019-05-06T05:39:06.593Z,4.96
2019-05-06T05:40:06.580Z,5.04
2019-05-06T05:41:06.568Z,4.94
2019-05-06T05:42:06.554Z,5.04
2019-05-06T05:43:06.565Z,5.09
2019-05-06T05:44:06.533Z,5.05
2019-05-06T05:45:06.521Z,5.09
2019-05-06T05:46:06.513Z,5.09
2019-05-06T05:47:06.499Z,5.07
2019-05-06T05:48:06.506Z,5.13
2019-05-06T05:49:06.476Z,5.17
2019-05-06T05:50:06.463Z,5.22
2019-05-06T05:51:06.457Z,5.13
2019-05-06T05:52:06.440Z,5.25
2019-05-06T05:53:06.449Z,5.32
2019-05-06T05:54:06.417Z,5.37
2019-05-06T05:55:06.403Z,5.27
2019-05-06T05:56:06.393Z,5.38
2019-05-06T05:57:06.381Z,5.27
2019-05-06T05:58:06.388Z,5.30
2019-05-06T05:59:06.357Z,5.38
2019-05-06T06:00:06.347Z,5.38
2019-05-06T06:01:06.336Z,5.45
2019-05-06T06:02:06.325Z,5.35
2019-05-06T06:03:07.217Z,5.43
2019-05-06T06:04:06.299Z,5.56
2019-05-06T06:05:06.288Z,5.49
2019-05-06T06:06:06.277Z,5.57
2019-05-06T06:07:06.263Z,5.56
2019-05-06T06:08:06.275Z,5.60
2019-05-06T06:09:06.243Z,5.73
2019-05-06T06:10:06.231Z,5.75
2019-05-06T06:11:06.219Z,5.77
2019-05-06T06:12:06.206Z,5.78
2019-05-06T06:13:06.213Z,5.78
2019-05-06T06:14:06.185Z,5.85
2019-05-06T06:15:06.173Z,5.91
2019-05-06T06:16:06.163Z,6.13
2019-05-06T06:17:06.150Z,6.19
2019-05-06T06:18:06.156Z,6.16
2019-05-06T06:19:06.154Z,6.19
2019-05-06T06:20:06.117Z,6.28
2019-05-06T06:21:17.732Z,6.29
2019-05-06T06:22:07.092Z,6.41
2019-05-06T06:23:06.099Z,6.51
2019-05-06T06:24:06.068Z,6.43
2019-05-06T06:25:06.058Z,6.41
2019-05-06T06:26:06.045Z,6.59
2019-05-06T06:27:06.032Z,6.53
2019-05-06T06:28:06.043Z,6.62
2019-05-06T06:29:06.012Z,6.65
2019-05-06T06:30:06.000Z,6.91
2019-05-06T06:31:05.987Z,6.89
2019-05-06T06:32:05.975Z,7.07
2019-05-06T06:33:05.966Z,7.07
2019-05-06T06:34:05.978Z,7.07
2019-05-06T06:35:11.035Z,7.09
2019-05-06T06:36:06.929Z,7.22
2019-05-06T06:37:05.918Z,7.15
2019-05-06T06:38:05.904Z,7.20
2019-05-06T06:39:05.913Z,7.29
2019-05-06T06:40:05.884Z,7.34
2019-05-06T06:41:05.871Z,7.32
2019-05-06T06:42:05.859Z,7.35
2019-05-06T06:43:05.847Z,7.47
2019-05-06T06:44:05.855Z,7.47
2019-05-06T06:45:05.825Z,7.52
2019-05-06T06:46:09.263Z,7.41
2019-05-06T06:47:05.800Z,7.50
2019-05-06T06:48:05.787Z,7.50
2019-05-06T06:49:05.796Z,7.53
2019-05-06T06:50:05.764Z,7.58
2019-05-06T06:51:05.754Z,7.72
2019-05-06T06:52:11.281Z,7.71
2019-05-06T06:53:06.728Z,7.81
2019-05-06T06:54:05.758Z,7.77
2019-05-06T06:55:05.706Z,7.77
2019-05-06T06:56:05.694Z,7.82
2019-05-06T06:57:09.158Z,7.87
2019-05-06T06:58:05.673Z,7.96
2019-05-06T06:59:05.660Z,7.96
2019-05-06T07:00:05.665Z,8.08
2019-05-06T07:01:05.635Z,8.20
2019-05-06T07:02:05.625Z,8.37
2019-05-06T07:03:05.613Z,8.25
2019-05-06T07:04:10.618Z,8.32
2019-05-06T07:05:06.608Z,8.42
2019-05-06T07:06:05.578Z,8.44
2019-05-06T07:07:05.573Z,8.45
2019-05-06T07:08:05.557Z,8.55
2019-05-06T07:09:05.552Z,8.55
2019-05-06T07:10:05.550Z,8.55
2019-05-06T07:11:05.521Z,8.72
2019-05-06T07:12:05.557Z,8.63
2019-05-06T07:13:05.500Z,8.54
2019-05-06T07:14:05.494Z,8.66
2019-05-06T07:15:05.495Z,8.69
2019-05-06T07:16:05.466Z,8.72
2019-05-06T07:17:05.453Z,8.81
2019-05-06T07:18:05.444Z,8.76
2019-05-06T07:19:05.430Z,8.97
2019-05-06T07:20:05.447Z,8.93
2019-05-06T07:21:06.298Z,8.93
2019-05-06T07:22:06.999Z,9.01
2019-05-06T07:23:05.384Z,9.01
2019-05-06T07:24:05.373Z,9.10
2019-05-06T07:25:05.385Z,9.23
2019-05-06T07:26:05.352Z,9.25
2019-05-06T07:27:05.339Z,9.34
2019-05-06T07:28:05.328Z,9.49
2019-05-06T07:29:15.280Z,9.39
2019-05-06T07:30:06.327Z,9.43
2019-05-06T07:31:20.713Z,9.56
2019-05-06T07:32:06.278Z,9.35
2019-05-06T07:33:05.271Z,9.58
2019-05-06T07:34:05.253Z,9.64
2019-05-06T07:35:06.323Z,9.56
2019-05-06T07:36:05.250Z,9.58
2019-05-06T07:37:05.216Z,9.61
2019-05-06T07:38:05.204Z,9.63
2019-05-06T07:39:05.213Z,9.64
2019-05-06T07:40:05.181Z,9.76
2019-05-06T07:41:05.196Z,9.85
2019-05-06T07:42:05.159Z,10.06
2019-05-06T07:43:05.147Z,10.33
2019-05-06T07:44:05.135Z,10.59
2019-05-06T07:45:06.472Z,10.71
2019-05-06T07:46:05.136Z,10.84
2019-05-06T07:47:05.100Z,11.01
2019-05-06T07:48:05.088Z,12.33
2019-05-06T07:49:05.075Z,13.37
2019-05-06T07:50:05.065Z,14.61
2019-05-06T07:51:05.051Z,15.48
2019-05-06T07:52:05.060Z,16.41
2019-05-06T07:53:05.033Z,17.04
2019-05-06T07:54:05.017Z,17.74
2019-05-06T07:55:05.010Z,18.50
2019-05-06T07:56:04.994Z,18.94
2019-05-06T07:57:04.999Z,19.90
2019-05-06T07:58:04.974Z,20.31
2019-05-06T07:59:04.961Z,19.51
2019-05-06T08:00:04.948Z,18.74
2019-05-06T08:01:04.936Z,18.77
2019-05-06T08:02:04.943Z,19.39
2019-05-06T08:03:04.914Z,20.12
2019-05-06T08:04:04.903Z,20.72
2019-05-06T08:05:07.535Z,21.06
2019-05-06T08:06:04.880Z,21.54
2019-05-06T08:07:04.892Z,21.95
2019-05-06T08:08:04.872Z,21.44
2019-05-06T08:09:04.844Z,21.41
2019-05-06T08:10:04.832Z,21.36
2019-05-06T08:11:04.825Z,22.02
2019-05-06T08:12:04.827Z,21.34
2019-05-06T08:13:04.799Z,20.62
2019-05-06T08:14:04.787Z,20.58
2019-05-06T08:15:05.820Z,20.68
2019-05-06T08:16:04.774Z,20.93
2019-05-06T08:17:04.768Z,21.46
2019-05-06T08:18:04.752Z,21.95
2019-05-06T08:19:04.731Z,22.22
2019-05-06T08:20:04.731Z,21.95
2019-05-06T08:21:04.707Z,21.71
2019-05-06T08:22:04.715Z,22.43
2019-05-06T08:23:04.685Z,22.78
2019-05-06T08:24:04.673Z,22.60
2019-05-06T08:25:04.661Z,22.47
2019-05-06T08:26:12.466Z,22.69
2019-05-06T08:27:05.660Z,21.99
2019-05-06T08:28:04.627Z,22.07
2019-05-06T08:29:04.617Z,22.22
2019-05-06T08:30:04.608Z,22.09
2019-05-06T08:31:04.595Z,21.90
2019-05-06T08:32:04.607Z,22.46
2019-05-06T08:33:04.573Z,23.17
2019-05-06T08:34:04.559Z,23.64
2019-05-06T08:35:04.549Z,23.72
2019-05-06T08:36:11.342Z,23.65
2019-05-06T08:37:05.544Z,23.22
2019-05-06T08:38:04.517Z,23.61
2019-05-06T08:39:04.506Z,23.68
2019-05-06T08:40:04.494Z,23.82
2019-05-06T08:41:04.483Z,24.17
2019-05-06T08:42:04.473Z,24.27
2019-05-06T08:43:04.479Z,24.01
2019-05-06T08:44:04.454Z,24.41
2019-05-06T08:45:07.010Z,24.59
2019-05-06T08:46:04.427Z,24.04
2019-05-06T08:47:04.415Z,24.39
2019-05-06T08:48:04.431Z,24.10
2019-05-06T08:49:04.395Z,24.49
2019-05-06T08:50:04.387Z,24.82
2019-05-06T08:51:04.400Z,25.37
2019-05-06T08:52:04.363Z,25.68
2019-05-06T08:53:05.090Z,24.38
2019-05-06T08:54:04.340Z,23.26
2019-05-06T08:55:04.883Z,22.16
2019-05-06T08:56:04.318Z,20.99
2019-05-06T08:57:04.308Z,20.15
2019-05-06T08:58:04.320Z,19.63
2019-05-06T08:59:04.284Z,20.03
2019-05-06T09:00:04.275Z,21.01
2019-05-06T09:01:04.263Z,21.97
2019-05-06T09:02:04.252Z,21.91
2019-05-06T09:03:04.671Z,21.60
2019-05-06T09:04:09.462Z,21.64
2019-05-06T09:05:05.218Z,22.02
2019-05-06T09:06:07.287Z,21.81
2019-05-06T09:07:04.201Z,21.75
2019-05-06T09:08:04.187Z,21.91
2019-05-06T09:09:04.194Z,22.28
2019-05-06T09:10:04.160Z,22.60
2019-05-06T09:11:04.151Z,22.90
2019-05-06T09:12:04.139Z,23.34
2019-05-06T09:13:04.131Z,24.20
2019-05-06T09:14:04.161Z,24.75
2019-05-06T09:15:04.106Z,25.30
2019-05-06T09:16:04.122Z,25.67
2019-05-06T09:17:04.086Z,25.39
2019-05-06T09:18:04.073Z,25.25
2019-05-06T09:19:04.632Z,25.71
2019-05-06T09:20:04.072Z,26.35
2019-05-06T09:21:04.041Z,26.39
2019-05-06T09:22:04.031Z,25.86
2019-05-06T09:23:04.712Z,25.87
2019-05-06T09:24:04.011Z,25.94
2019-05-06T09:25:04.018Z,25.89
2019-05-06T09:26:03.991Z,25.34
2019-05-06T09:27:03.976Z,25.46
2019-05-06T09:28:03.968Z,25.74
2019-05-06T09:29:03.957Z,26.12
2019-05-06T09:30:03.987Z,26.29
2019-05-06T09:31:03.936Z,26.04
2019-05-06T09:32:03.924Z,26.24
2019-05-06T09:33:03.916Z,26.58
2019-05-06T09:34:03.902Z,26.84
2019-05-06T09:35:03.892Z,25.09
2019-05-06T09:36:03.901Z,24.73
2019-05-06T09:37:03.931Z,25.12
2019-05-06T09:38:03.861Z,25.65
2019-05-06T09:39:03.876Z,24.95
2019-05-06T09:40:03.840Z,23.46
2019-05-06T09:41:05.005Z,22.75
2019-05-06T09:42:03.817Z,22.02
2019-05-06T09:43:04.696Z,21.34
2019-05-06T09:44:03.794Z,20.95
2019-05-06T09:45:03.781Z,20.56
2019-05-06T09:46:03.792Z,20.49
2019-05-06T09:47:03.760Z,20.68
2019-05-06T09:48:04.296Z,22.14
2019-05-06T09:49:03.737Z,23.57
2019-05-06T09:50:03.728Z,23.71
2019-05-06T09:51:03.747Z,23.82
2019-05-06T09:52:03.702Z,23.86
2019-05-06T09:53:03.695Z,24.01
2019-05-06T09:54:04.201Z,24.61
2019-05-06T09:55:03.669Z,22.86
2019-05-06T09:56:03.669Z,21.32
2019-05-06T09:57:03.667Z,20.39
2019-05-06T09:58:03.768Z,19.83
2019-05-06T09:59:03.625Z,19.36
2019-05-06T10:00:04.895Z,18.84
2019-05-06T10:01:03.600Z,18.46
2019-05-06T10:02:03.630Z,18.22
2019-05-06T10:03:03.958Z,17.67
2019-05-06T10:04:03.566Z,17.15
2019-05-06T10:05:03.804Z,16.58
2019-05-06T10:06:03.547Z,16.70
2019-05-06T10:07:03.552Z,17.70
2019-05-06T10:08:03.522Z,19.08
2019-05-06T10:09:04.852Z,18.94
2019-05-06T10:10:03.503Z,18.82
2019-05-06T10:11:03.486Z,18.03
2019-05-06T10:12:03.493Z,17.25
2019-05-06T10:13:03.462Z,16.92
2019-05-06T10:14:03.456Z,16.70
2019-05-06T10:15:03.518Z,16.70
2019-05-06T10:16:03.428Z,16.30
2019-05-06T10:17:04.438Z,16.11
2019-05-06T10:18:04.527Z,15.94
2019-05-06T10:19:03.393Z,15.67
2019-05-06T10:20:03.394Z,15.52
2019-05-06T10:21:03.386Z,15.68
2019-05-06T10:22:03.678Z,15.56
2019-05-06T10:23:03.348Z,15.42
2019-05-06T10:24:03.333Z,15.42
2019-05-06T10:25:03.902Z,15.70
2019-05-06T10:26:04.603Z,16.90
2019-05-06T10:27:03.299Z,18.00
2019-05-06T10:28:03.333Z,18.83
2019-05-06T10:29:03.276Z,19.83
2019-05-06T10:30:03.526Z,20.71
2019-05-06T10:31:03.250Z,21.11
2019-05-06T10:32:12.074Z,20.79
2019-05-06T10:33:03.234Z,20.35
2019-05-06T10:34:03.518Z,19.32
2019-05-06T10:35:03.209Z,18.27
2019-05-06T10:36:03.197Z,17.66
2019-05-06T10:37:12.551Z,17.29
2019-05-06T10:38:04.169Z,16.86
2019-05-06T10:39:03.159Z,16.35
2019-05-06T10:40:03.484Z,15.74
2019-05-06T10:41:07.206Z,15.30
2019-05-06T10:42:03.123Z,15.09
2019-05-06T10:43:03.130Z,14.71
2019-05-06T10:44:03.224Z,14.44
2019-05-06T10:45:03.092Z,14.16
2019-05-06T10:46:04.112Z,13.89
2019-05-06T10:47:03.108Z,13.87
2019-05-06T10:48:03.072Z,13.84
2019-05-06T10:49:03.046Z,13.83
2019-05-06T10:50:03.034Z,13.74
2019-05-06T10:51:03.590Z,13.74
2019-05-06T10:52:03.011Z,13.70
2019-05-06T10:53:03.018Z,13.46
2019-05-06T10:54:03.293Z,13.33
2019-05-06T10:55:03.469Z,13.11
2019-05-06T10:56:02.972Z,12.84
2019-05-06T10:57:02.947Z,12.70
2019-05-06T10:58:02.957Z,12.77
2019-05-06T10:59:02.924Z,12.67
2019-05-06T11:00:02.926Z,12.78
2019-05-06T11:01:03.603Z,12.82
2019-05-06T11:02:05.434Z,13.06
2019-05-06T11:03:02.897Z,13.33
2019-05-06T11:04:02.993Z,13.40
2019-05-06T11:05:02.993Z,13.79
2019-05-06T11:06:02.843Z,13.71
2019-05-06T11:07:04.093Z,13.89
2019-05-06T11:08:02.862Z,14.06
2019-05-06T11:09:03.318Z,14.29
2019-05-06T11:10:02.984Z,14.49
2019-05-06T11:11:14.942Z,14.81
2019-05-06T11:12:03.772Z,15.15
2019-05-06T11:13:03.474Z,15.27
2019-05-06T11:14:03.194Z,15.42
2019-05-06T11:15:03.472Z,15.43
2019-05-06T11:16:03.420Z,15.38
2019-05-06T11:17:05.112Z,15.26
2019-05-06T11:18:04.757Z,15.33
2019-05-06T11:19:05.174Z,15.31
2019-05-06T11:20:06.197Z,15.36
2019-05-06T11:21:03.500Z,15.13
2019-05-06T11:22:03.683Z,14.87
2019-05-06T11:23:02.644Z,14.56
2019-05-06T11:24:05.958Z,14.37
2019-05-06T11:25:03.310Z,13.95
2019-05-06T11:26:03.181Z,13.73
2019-05-06T11:27:03.349Z,13.43
2019-05-06T11:28:03.035Z,13.29
2019-05-06T11:29:05.196Z,13.00
2019-05-06T11:30:02.588Z,12.79
2019-05-06T11:31:02.692Z,12.54
2019-05-06T11:32:02.537Z,12.46
2019-05-06T11:33:04.809Z,12.48
2019-05-06T11:34:02.547Z,12.42
2019-05-06T11:35:03.767Z,12.44
2019-05-06T11:36:02.490Z,12.38
2019-05-06T11:37:02.479Z,12.19
2019-05-06T11:38:02.467Z,12.11
2019-05-06T11:39:02.457Z,12.02
2019-05-06T11:40:02.464Z,11.96
2019-05-06T11:41:02.453Z,11.96
2019-05-06T11:42:23.828Z,11.94
2019-05-06T11:43:03.411Z,11.77
2019-05-06T11:44:02.396Z,11.72
2019-05-06T11:45:03.198Z,11.77
2019-05-06T11:46:02.542Z,11.85
2019-05-06T11:47:03.379Z,12.05
2019-05-06T11:48:02.348Z,12.02
2019-05-06T11:49:02.337Z,12.06
2019-05-06T11:50:04.992Z,12.09
2019-05-06T11:51:02.324Z,11.93
2019-05-06T11:52:02.536Z,12.13
2019-05-06T11:53:02.578Z,12.29
2019-05-06T11:54:02.882Z,12.29
2019-05-06T11:55:03.282Z,12.31
2019-05-06T11:56:02.372Z,12.34
2019-05-06T11:57:02.946Z,12.41
2019-05-06T11:58:02.687Z,12.38
2019-05-06T11:59:02.536Z,12.34
2019-05-06T12:00:03.093Z,12.37
2019-05-06T12:01:02.861Z,12.31
2019-05-06T12:02:02.763Z,12.29
2019-05-06T12:03:02.454Z,12.24
2019-05-06T12:04:02.659Z,12.30
2019-05-06T12:05:02.431Z,12.20
2019-05-06T12:06:03.875Z,12.23
2019-05-06T12:07:10.273Z,11.97
2019-05-06T12:08:07.968Z,11.75
2019-05-06T12:09:06.317Z,11.52
2019-05-06T12:10:02.604Z,11.52
2019-05-06T12:11:02.953Z,11.31
2019-05-06T12:12:03.284Z,11.17
2019-05-06T12:13:02.824Z,11.09
2019-05-06T12:14:02.575Z,11.11
2019-05-06T12:15:03.532Z,11.16
2019-05-06T12:16:02.475Z,11.03
2019-05-06T12:17:02.339Z,10.96
2019-05-06T12:18:03.609Z,11.11
2019-05-06T12:19:02.796Z,11.09
2019-05-06T12:20:03.000Z,10.99
2019-05-06T12:21:09.035Z,11.02
2019-05-06T12:22:02.957Z,11.07
2019-05-06T12:23:04.296Z,11.09
2019-05-06T12:24:02.851Z,11.21
2019-05-06T12:25:04.618Z,11.28
2019-05-06T12:26:02.450Z,11.17
2019-05-06T12:27:03.308Z,11.20
2019-05-06T12:28:03.016Z,11.07
2019-05-06T12:29:02.337Z,11.11
2019-05-06T12:30:05.374Z,11.11
2019-05-06T12:31:01.834Z,11.11
2019-05-06T12:32:03.650Z,11.14
2019-05-06T12:33:03.171Z,11.16
2019-05-06T12:34:02.683Z,10.92
2019-05-06T12:35:03.406Z,10.80
2019-05-06T12:36:02.549Z,10.76
2019-05-06T12:37:02.670Z,10.73
2019-05-06T12:38:06.819Z,10.68
2019-05-06T12:39:06.682Z,10.68
2019-05-06T12:40:03.447Z,10.62
2019-05-06T12:41:03.346Z,10.78
2019-05-06T12:42:01.727Z,10.73
2019-05-06T12:43:03.922Z,10.91
2019-05-06T12:44:03.159Z,10.84
2019-05-06T12:45:03.589Z,10.99
2019-05-06T12:46:02.852Z,11.17
2019-05-06T12:47:03.350Z,11.35
2019-05-06T12:48:03.061Z,11.57
2019-05-06T12:49:03.175Z,11.74
2019-05-06T12:50:02.684Z,11.75
2019-05-06T12:51:03.112Z,11.89
2019-05-06T12:52:01.615Z,11.94
2019-05-06T12:53:01.601Z,12.20
2019-05-06T12:54:03.581Z,12.27
2019-05-06T12:55:17.486Z,12.54
2019-05-06T12:56:03.188Z,12.79
2019-05-06T12:57:03.380Z,12.69
2019-05-06T12:58:03.000Z,12.75
2019-05-06T12:59:02.092Z,12.88
2019-05-06T13:00:03.513Z,13.07
2019-05-06T13:01:04.011Z,13.15
2019-05-06T13:02:02.765Z,13.30
2019-05-06T13:03:02.251Z,13.41
2019-05-06T13:04:04.611Z,13.47
2019-05-06T13:05:03.894Z,13.95
2019-05-06T13:06:07.746Z,14.16
2019-05-06T13:07:03.019Z,14.39
2019-05-06T13:08:05.584Z,14.46